Time;durP1;ratioP1;P1;durP2;ratioP2;P2;SDS_P1;SDS_P2;PMS_P1;PMS_P2;Temp;Humidity;BMP_temperature;BMP_pressure;BME280_temperature;BME280_humidity;BME280_pressure;Samples;Min_cycle;Max_cycle;Signal;HPM_P1;HPM_P2
2023/06/06 00:02:13;;;;;;;4.97;2.42;;;17.90;59.70;;;;;;4980716;28;20064;-70
2023/06/06 00:04:39;;;;;;;4.83;2.57;;;17.80;59.50;;;;;;4968333;28;20125;-69
2023/06/06 00:07:08;;;;;;;4.33;2.37;;;17.80;59.90;;;;;;4951827;28;20113;-69
2023/06/06 00:09:35;;;;;;;4.32;2.33;;;17.70;59.80;;;;;;4959660;28;20470;-69
2023/06/06 00:12:04;;;;;;;4.75;2.53;;;17.70;59.80;;;;;;4963583;28;20661;-70
2023/06/06 00:14:32;;;;;;;5.00;2.45;;;17.70;60.10;;;;;;4976160;28;20014;-69
2023/06/06 00:16:58;;;;;;;5.55;2.85;;;17.60;60.10;;;;;;4968412;28;20050;-69
2023/06/06 00:19:24;;;;;;;4.00;2.30;;;17.60;60.50;;;;;;4966770;28;20035;-70
2023/06/06 00:21:50;;;;;;;4.00;2.20;;;17.50;60.50;;;;;;4952519;28;20065;-70
2023/06/06 00:24:17;;;;;;;4.30;2.20;;;17.50;60.40;;;;;;4957426;28;20038;-70
2023/06/06 00:26:43;;;;;;;4.80;2.55;;;17.40;60.50;;;;;;4979301;28;20719;-69
2023/06/06 00:29:09;;;;;;;4.30;2.43;;;17.40;60.50;;;;;;4960378;28;20073;-69
2023/06/06 00:31:34;;;;;;;4.10;2.47;;;17.30;60.70;;;;;;4968156;28;20134;-69
2023/06/06 00:34:00;;;;;;;4.13;2.23;;;17.30;60.90;;;;;;4970029;28;20017;-70
2023/06/06 00:36:26;;;;;;;5.70;2.70;;;17.20;60.90;;;;;;4946641;28;20041;-70
2023/06/06 00:38:52;;;;;;;6.20;2.38;;;17.30;61.20;;;;;;4956237;28;20570;-69
2023/06/06 00:41:17;;;;;;;5.27;2.60;;;17.20;61.10;;;;;;4977182;28;20025;-70
2023/06/06 00:43:46;;;;;;;4.20;2.30;;;17.20;61.00;;;;;;4961055;28;20029;-69
2023/06/06 00:46:13;;;;;;;4.47;2.28;;;17.20;61.90;;;;;;4979320;28;20085;-70
2023/06/06 00:48:39;;;;;;;5.03;2.70;;;17.10;61.30;;;;;;4961614;28;20060;-69
2023/06/06 00:51:08;;;;;;;3.90;2.42;;;17.10;61.40;;;;;;4969266;28;20472;-70
2023/06/06 00:53:34;;;;;;;5.53;2.50;;;17.10;61.70;;;;;;4954759;28;20731;-69
2023/06/06 00:56:00;;;;;;;5.80;2.85;;;17.00;61.60;;;;;;4949724;28;20125;-70
2023/06/06 00:58:26;;;;;;;4.60;2.57;;;17.00;61.70;;;;;;4974218;28;20827;-70
2023/06/06 01:00:52;;;;;;;5.47;2.65;;;16.90;62.60;;;;;;4962602;28;20084;-70
2023/06/06 01:03:20;;;;;;;5.47;2.53;;;16.90;62.10;;;;;;4960950;28;20799;-70
2023/06/06 01:05:47;;;;;;;4.20;2.35;;;16.80;62.00;;;;;;4967623;28;20026;-69
2023/06/06 01:08:13;;;;;;;5.23;2.50;;;16.80;62.20;;;;;;4945641;28;20036;-70
2023/06/06 01:10:40;;;;;;;4.55;2.67;;;16.80;62.10;;;;;;4966665;28;20076;-69
2023/06/06 01:13:23;;;;;;;9.02;2.90;;;16.80;62.20;;;;;;4950267;28;20058;-70
2023/06/06 01:15:55;;;;;;;5.60;2.65;;;16.70;63.00;;;;;;4938965;28;20117;-70
2023/06/06 01:18:21;;;;;;;5.13;2.80;;;16.70;62.90;;;;;;4969484;28;20425;-70
2023/06/06 01:20:48;;;;;;;4.40;2.40;;;16.70;62.60;;;;;;4972806;28;20480;-69
2023/06/06 01:23:14;;;;;;;4.72;2.60;;;16.70;62.60;;;;;;4980141;28;20040;-70
2023/06/06 01:25:45;;;;;;;4.78;2.80;;;16.70;62.60;;;;;;4950987;28;20026;-69
2023/06/06 01:28:13;;;;;;;5.22;2.50;;;16.60;62.90;;;;;;4965892;28;20028;-70
2023/06/06 01:30:41;;;;;;;5.03;2.72;;;16.60;62.70;;;;;;4952534;28;20033;-68
2023/06/06 01:33:31;;;;;;;4.80;2.57;;;16.60;63.00;;;;;;4962230;28;20918;-70
2023/06/06 01:36:05;;;;;;;4.25;2.28;;;16.50;63.60;;;;;;4961772;28;20038;-70
2023/06/06 01:38:35;;;;;;;5.00;2.70;;;16.50;63.30;;;;;;4980678;28;20467;-69
2023/06/06 01:41:03;;;;;;;4.55;2.55;;;16.50;63.20;;;;;;4952949;28;20038;-70
2023/06/06 01:43:31;;;;;;;6.38;2.63;;;16.40;63.10;;;;;;4966747;28;20030;-70
2023/06/06 01:45:58;;;;;;;4.97;2.53;;;16.40;63.30;;;;;;4962461;28;20376;-70
2023/06/06 01:48:24;;;;;;;4.05;2.58;;;16.40;63.30;;;;;;4956219;28;20417;-70
2023/06/06 01:50:50;;;;;;;4.95;2.90;;;16.40;63.30;;;;;;4985255;28;20478;-70
2023/06/06 01:53:16;;;;;;;4.28;2.45;;;16.40;63.20;;;;;;4965950;28;20359;-68
2023/06/06 01:55:42;;;;;;;4.67;2.70;;;16.30;63.30;;;;;;4950691;28;20124;-70
2023/06/06 01:58:08;;;;;;;5.30;2.53;;;16.30;63.30;;;;;;4974518;28;20030;-69
2023/06/06 02:00:34;;;;;;;4.80;2.92;;;16.30;63.60;;;;;;4965553;28;20243;-71
2023/06/06 02:03:01;;;;;;;5.93;2.40;;;16.20;63.60;;;;;;4958723;28;20031;-69
2023/06/06 02:05:27;;;;;;;5.47;2.67;;;16.20;63.70;;;;;;4958002;28;20223;-70
2023/06/06 02:07:53;;;;;;;5.38;2.72;;;16.20;64.30;;;;;;4968744;28;20590;-70
2023/06/06 02:10:19;;;;;;;5.75;2.78;;;16.20;63.90;;;;;;4970932;28;20018;-68
2023/06/06 02:12:45;;;;;;;5.17;2.77;;;16.10;63.80;;;;;;4947341;28;20040;-69
2023/06/06 02:15:11;;;;;;;5.15;2.67;;;16.10;64.00;;;;;;4947780;28;20030;-69
2023/06/06 02:17:37;;;;;;;5.05;2.42;;;16.10;64.20;;;;;;4962105;28;20459;-70
2023/06/06 02:20:07;;;;;;;4.40;2.63;;;16.10;64.10;;;;;;4938992;28;20217;-68
2023/06/06 02:22:33;;;;;;;4.65;2.60;;;16.10;64.00;;;;;;4969536;28;20130;-69
2023/06/06 02:24:59;;;;;;;4.40;2.30;;;16.00;64.10;;;;;;4963290;28;20270;-69
2023/06/06 02:27:26;;;;;;;4.87;2.50;;;16.00;64.30;;;;;;4942402;28;20069;-70
2023/06/06 02:29:51;;;;;;;3.88;2.35;;;16.00;64.30;;;;;;4967963;28;20039;-69
2023/06/06 02:32:17;;;;;;;5.50;2.85;;;15.90;64.30;;;;;;4950303;28;20167;-70
2023/06/06 02:34:43;;;;;;;5.67;2.40;;;15.90;64.40;;;;;;4951778;28;20474;-70
2023/06/06 02:37:09;;;;;;;4.40;2.55;;;15.90;64.60;;;;;;4971363;28;20089;-71
2023/06/06 02:39:35;;;;;;;5.20;2.60;;;15.80;64.40;;;;;;4951437;28;20064;-70
2023/06/06 02:42:02;;;;;;;4.73;2.73;;;15.80;64.60;;;;;;4946229;28;20030;-69
2023/06/06 02:44:28;;;;;;;5.47;2.50;;;15.80;64.80;;;;;;4973807;28;20219;-70
2023/06/06 02:46:53;;;;;;;4.47;2.72;;;15.70;64.80;;;;;;4966205;28;20526;-69
2023/06/06 02:49:20;;;;;;;5.90;2.53;;;15.70;64.90;;;;;;4956144;28;20515;-70
2023/06/06 02:51:46;;;;;;;5.10;2.55;;;15.70;64.80;;;;;;4978634;28;20066;-69
2023/06/06 02:54:12;;;;;;;4.78;2.55;;;15.70;65.00;;;;;;4966497;28;20344;-70
2023/06/06 02:56:38;;;;;;;5.30;2.40;;;15.70;65.10;;;;;;4960661;28;20165;-70
2023/06/06 02:59:04;;;;;;;5.15;2.70;;;15.60;65.00;;;;;;4944893;28;20018;-70
2023/06/06 03:01:30;;;;;;;5.10;2.40;;;15.60;65.10;;;;;;4963891;28;20038;-70
2023/06/06 03:03:56;;;;;;;4.75;2.60;;;15.60;65.20;;;;;;4970406;28;20030;-69
2023/06/06 03:06:22;;;;;;;4.55;2.45;;;15.50;65.10;;;;;;4964802;28;20572;-70
2023/06/06 03:08:49;;;;;;;5.07;2.57;;;15.50;65.20;;;;;;4978269;28;20030;-68
2023/06/06 03:11:16;;;;;;;5.68;2.45;;;15.50;65.20;;;;;;4967174;28;20496;-70
2023/06/06 03:13:48;;;;;;;4.45;2.25;;;15.50;65.30;;;;;;4948336;28;20117;-69
2023/06/06 03:16:15;;;;;;;4.50;2.30;;;15.50;65.80;;;;;;4959429;28;20140;-70
2023/06/06 03:18:41;;;;;;;5.45;2.17;;;15.40;65.50;;;;;;4968638;28;20033;-71
2023/06/06 03:21:07;;;;;;;4.77;2.47;;;15.40;65.50;;;;;;4957557;28;20125;-71
2023/06/06 03:23:33;;;;;;;4.82;2.38;;;15.40;65.70;;;;;;4976446;28;20080;-70
2023/06/06 03:26:00;;;;;;;4.10;2.40;;;15.30;65.70;;;;;;4966855;28;20030;-68
2023/06/06 03:28:26;;;;;;;5.03;2.27;;;15.30;65.70;;;;;;4971613;28;20362;-70
2023/06/06 03:30:51;;;;;;;5.00;2.25;;;15.30;65.70;;;;;;4945958;28;20041;-69
2023/06/06 03:33:17;;;;;;;5.23;2.60;;;15.20;65.80;;;;;;4966131;28;20159;-70
2023/06/06 03:35:43;;;;;;;5.15;2.40;;;15.20;65.90;;;;;;4979096;28;20503;-70
2023/06/06 03:38:08;;;;;;;4.65;2.53;;;15.20;66.00;;;;;;4955417;28;20228;-70
2023/06/06 03:40:34;;;;;;;5.27;2.70;;;15.10;66.00;;;;;;4971141;28;20054;-70
2023/06/06 03:43:00;;;;;;;5.55;2.50;;;15.20;66.20;;;;;;4975168;28;20035;-69
2023/06/06 03:45:26;;;;;;;4.17;2.50;;;15.10;66.90;;;;;;4936442;28;20703;-70
2023/06/06 03:47:51;;;;;;;4.13;2.35;;;15.10;66.30;;;;;;4964994;28;20409;-69
2023/06/06 03:50:18;;;;;;;4.73;2.33;;;15.00;66.20;;;;;;4971872;28;20635;-69
2023/06/06 03:52:45;;;;;;;4.57;2.50;;;15.00;67.20;;;;;;4961549;28;20450;-69
2023/06/06 03:55:11;;;;;;;4.47;2.60;;;15.00;66.50;;;;;;4962586;28;20060;-70
2023/06/06 03:57:38;;;;;;;4.10;2.37;;;15.00;66.70;;;;;;4977370;28;20105;-69
2023/06/06 04:00:13;;;;;;;5.70;2.60;;;15.00;66.30;;;;;;4969215;28;20085;-69
2023/06/06 04:02:42;;;;;;;5.13;2.35;;;15.00;66.00;;;;;;4954807;28;20541;-70
2023/06/06 04:05:08;;;;;;;4.05;2.35;;;15.00;66.70;;;;;;4961811;28;20092;-69
2023/06/06 04:07:35;;;;;;;4.43;2.33;;;15.00;66.60;;;;;;4966771;28;20506;-70
2023/06/06 04:10:02;;;;;;;3.80;2.27;;;14.90;66.50;;;;;;4965460;28;20028;-68
2023/06/06 04:12:28;;;;;;;6.05;2.65;;;14.90;66.90;;;;;;4979494;28;20034;-69
2023/06/06 04:14:54;;;;;;;4.60;2.40;;;15.00;67.00;;;;;;4973207;28;20089;-68
2023/06/06 04:17:20;;;;;;;5.55;2.78;;;14.90;66.90;;;;;;4950647;28;20057;-69
2023/06/06 04:19:49;;;;;;;4.47;2.40;;;14.90;66.90;;;;;;4965284;28;20078;-68
2023/06/06 04:22:15;;;;;;;4.00;2.33;;;14.90;66.90;;;;;;4967125;28;21715;-70
2023/06/06 04:24:41;;;;;;;4.97;2.60;;;14.90;67.00;;;;;;4964449;28;20034;-70
2023/06/06 04:27:08;;;;;;;3.88;2.20;;;14.90;67.00;;;;;;4974663;28;20167;-70
2023/06/06 04:29:36;;;;;;;4.83;2.43;;;14.90;67.20;;;;;;4975039;28;20057;-70
2023/06/06 04:32:04;;;;;;;5.18;2.47;;;14.90;67.20;;;;;;4975570;28;20033;-68
2023/06/06 04:34:30;;;;;;;4.78;2.22;;;14.90;67.20;;;;;;4937301;28;20046;-69
2023/06/06 04:37:17;;;;;;;4.72;2.50;;;14.90;67.20;;;;;;4981071;28;20031;-68
2023/06/06 04:39:43;;;;;;;5.22;2.45;;;14.90;67.20;;;;;;4968710;28;20433;-69
2023/06/06 04:42:09;;;;;;;5.43;2.67;;;14.90;67.20;;;;;;4970799;28;20363;-70
2023/06/06 04:44:41;;;;;;;4.90;2.67;;;14.80;68.00;;;;;;4976510;28;20061;-69
2023/06/06 04:47:08;;;;;;;5.53;2.70;;;14.80;67.30;;;;;;4978893;28;20308;-69
2023/06/06 04:49:37;;;;;;;4.30;2.50;;;14.90;67.60;;;;;;4950212;28;20026;-69
2023/06/06 04:52:14;;;;;;;6.43;2.92;;;14.80;67.50;;;;;;4946671;28;20046;-68
2023/06/06 04:54:41;;;;;;;5.50;2.53;;;14.80;68.10;;;;;;4976712;28;20038;-70
2023/06/06 04:57:08;;;;;;;5.20;2.65;;;14.90;67.70;;;;;;4978217;28;20195;-71
2023/06/06 04:59:35;;;;;;;5.45;2.72;;;14.90;68.00;;;;;;4955430;28;20259;-69
2023/06/06 05:02:06;;;;;;;5.27;2.70;;;14.80;68.10;;;;;;4955366;28;20030;-69
2023/06/06 05:04:32;;;;;;;5.55;2.65;;;14.90;68.10;;;;;;4948086;28;20045;-70
2023/06/06 05:06:59;;;;;;;4.90;2.72;;;14.90;68.00;;;;;;4946154;28;20320;-70
2023/06/06 05:09:26;;;;;;;5.30;2.92;;;14.90;68.00;;;;;;4964881;28;20054;-70
2023/06/06 05:11:52;;;;;;;5.38;2.70;;;14.90;68.30;;;;;;4977341;28;20030;-70
2023/06/06 05:14:24;;;;;;;6.80;2.90;;;14.90;68.10;;;;;;4972953;28;20030;-70
2023/06/06 05:16:52;;;;;;;4.90;2.70;;;14.90;68.60;;;;;;4966634;28;20363;-70
2023/06/06 05:19:18;;;;;;;5.05;2.63;;;14.90;68.30;;;;;;4953483;28;20027;-70
2023/06/06 05:21:44;;;;;;;5.40;3.00;;;14.90;68.30;;;;;;4963807;28;20094;-69
2023/06/06 05:24:10;;;;;;;5.90;2.85;;;14.90;69.10;;;;;;4965425;28;20081;-70
2023/06/06 05:26:36;;;;;;;4.80;2.67;;;14.90;68.60;;;;;;4968579;28;20441;-69
2023/06/06 05:29:02;;;;;;;5.32;2.75;;;15.00;69.00;;;;;;4981209;28;20529;-70
2023/06/06 05:31:28;;;;;;;5.15;2.60;;;15.00;68.90;;;;;;4964015;28;20034;-70
2023/06/06 05:33:55;;;;;;;4.07;2.43;;;15.00;69.00;;;;;;4952640;28;20092;-70
2023/06/06 05:36:21;;;;;;;4.72;2.60;;;15.10;69.00;;;;;;4969441;28;20054;-70
2023/06/06 05:38:47;;;;;;;4.65;2.50;;;15.10;68.80;;;;;;4961852;28;20034;-68
2023/06/06 05:41:13;;;;;;;5.75;2.42;;;15.10;68.80;;;;;;4966940;28;20026;-70
2023/06/06 05:43:39;;;;;;;5.87;3.03;;;15.20;69.50;;;;;;4979547;28;20031;-69
2023/06/06 05:48:56;;;;;;;4.78;2.63;;;15.20;68.80;;;;;;4974212;28;20654;-70
2023/06/06 05:51:21;;;;;;;4.00;2.33;;;15.30;69.00;;;;;;4947218;28;20189;-70
2023/06/06 05:53:47;;;;;;;4.90;2.83;;;15.30;69.10;;;;;;4959326;28;20113;-68
2023/06/06 05:56:16;;;;;;;4.83;2.47;;;15.30;69.00;;;;;;4955358;28;20066;-69
2023/06/06 05:58:47;;;;;;;5.45;2.90;;;15.40;69.50;;;;;;4964281;28;20026;-69
2023/06/06 06:01:13;;;;;;;6.07;3.22;;;15.40;69.40;;;;;;4971945;28;20089;-70
2023/06/06 06:03:42;;;;;;;5.55;3.20;;;15.50;69.20;;;;;;4977288;28;20492;-69
2023/06/06 06:06:08;;;;;;;6.40;3.23;;;15.50;69.20;;;;;;4948203;28;21045;-70
2023/06/06 06:08:37;;;;;;;5.43;2.97;;;15.60;69.20;;;;;;4918145;28;20076;-69
2023/06/06 06:11:03;;;;;;;6.45;3.17;;;15.60;69.40;;;;;;4960462;28;20157;-70
2023/06/06 06:13:29;;;;;;;6.03;3.10;;;15.70;69.50;;;;;;4966912;28;20080;-70
2023/06/06 06:15:55;;;;;;;6.83;3.13;;;15.80;69.60;;;;;;4970553;28;20521;-70
2023/06/06 06:18:21;;;;;;;5.80;3.10;;;15.80;69.40;;;;;;4950925;28;20691;-69
2023/06/06 06:20:47;;;;;;;5.68;2.78;;;15.90;69.40;;;;;;4947879;28;20360;-70
2023/06/06 06:23:13;;;;;;;5.30;3.00;;;15.90;69.30;;;;;;4964125;28;20038;-69
2023/06/06 06:25:39;;;;;;;5.65;3.13;;;16.00;69.50;;;;;;4965744;28;20030;-71
2023/06/06 06:28:05;;;;;;;6.00;3.10;;;16.00;69.40;;;;;;4964627;28;20018;-70
2023/06/06 06:30:31;;;;;;;5.50;3.33;;;16.10;69.40;;;;;;4948431;28;20027;-70
2023/06/06 06:32:56;;;;;;;4.93;3.03;;;16.20;69.40;;;;;;4968712;28;20088;-69
2023/06/06 06:35:22;;;;;;;7.80;3.60;;;16.20;69.30;;;;;;4973457;28;20285;-70
2023/06/06 06:37:48;;;;;;;4.53;2.90;;;16.20;69.50;;;;;;4950297;28;20030;-69
2023/06/06 06:40:14;;;;;;;7.10;3.57;;;16.30;69.40;;;;;;4949994;28;20609;-70
2023/06/06 06:42:44;;;;;;;6.88;3.40;;;16.40;69.50;;;;;;4948456;28;20559;-69
2023/06/06 06:45:13;;;;;;;5.70;3.10;;;16.40;69.80;;;;;;4961162;28;20125;-70
2023/06/06 06:47:40;;;;;;;5.80;3.17;;;16.40;69.60;;;;;;4971242;28;20028;-69
2023/06/06 06:50:06;;;;;;;5.93;2.93;;;16.50;69.60;;;;;;4974438;28;20046;-68
2023/06/06 06:52:37;;;;;;;5.28;2.92;;;16.60;69.80;;;;;;4949979;28;20030;-70
2023/06/06 06:55:04;;;;;;;5.35;3.00;;;16.70;69.90;;;;;;4959932;28;20041;-68
2023/06/06 06:57:31;;;;;;;6.05;3.33;;;16.80;69.90;;;;;;4974366;28;20034;-70
2023/06/06 06:59:58;;;;;;;4.97;3.03;;;16.80;69.70;;;;;;4944973;28;20041;-69
2023/06/06 07:02:26;;;;;;;6.37;3.60;;;17.00;69.90;;;;;;4965565;28;20041;-69
2023/06/06 07:04:57;;;;;;;5.85;3.72;;;17.00;69.70;;;;;;4975491;28;20840;-69
2023/06/06 07:07:24;;;;;;;5.63;3.33;;;17.10;69.60;;;;;;4948575;28;20241;-70
2023/06/06 07:09:50;;;;;;;6.18;3.05;;;17.20;69.50;;;;;;4963795;28;20026;-70
2023/06/06 07:12:16;;;;;;;7.40;3.78;;;17.30;69.40;;;;;;4966070;28;20023;-70
2023/06/06 07:14:42;;;;;;;7.33;4.13;;;17.40;69.40;;;;;;4945448;28;20142;-69
2023/06/06 07:17:08;;;;;;;6.95;3.70;;;17.50;69.30;;;;;;4977181;28;20108;-69
2023/06/06 07:19:35;;;;;;;6.60;3.30;;;17.50;69.20;;;;;;4971843;28;20038;-71
2023/06/06 07:22:05;;;;;;;5.70;3.22;;;17.60;69.20;;;;;;4959157;28;20062;-69
2023/06/06 07:24:32;;;;;;;6.60;2.88;;;17.60;69.20;;;;;;4972983;28;20034;-70
2023/06/06 07:26:59;;;;;;;5.68;3.05;;;17.70;69.30;;;;;;4957829;28;20038;-69
2023/06/06 07:29:26;;;;;;;6.03;3.40;;;17.80;69.30;;;;;;4961898;28;20678;-69
2023/06/06 07:31:54;;;;;;;7.03;3.93;;;17.90;69.10;;;;;;4969063;28;20112;-69
2023/06/06 07:34:19;;;;;;;6.07;3.50;;;18.00;69.10;;;;;;4978574;28;20248;-70
2023/06/06 07:36:45;;;;;;;7.72;3.40;;;18.00;69.10;;;;;;4986295;28;20034;-71
2023/06/06 07:39:11;;;;;;;4.67;2.70;;;18.10;69.30;;;;;;4951323;28;20026;-69
2023/06/06 07:41:39;;;;;;;5.22;2.88;;;18.30;69.30;;;;;;4967014;28;20039;-69
2023/06/06 07:44:04;;;;;;;6.15;3.50;;;18.40;69.10;;;;;;4958022;28;20030;-69
2023/06/06 07:46:30;;;;;;;6.87;3.70;;;18.50;69.00;;;;;;4964352;28;20030;-70
2023/06/06 07:48:57;;;;;;;6.35;3.60;;;18.60;68.90;;;;;;4982284;28;20030;-69
2023/06/06 07:51:23;;;;;;;5.07;3.17;;;18.70;68.80;;;;;;4979057;28;20587;-69
2023/06/06 07:53:49;;;;;;;5.70;3.58;;;18.80;69.00;;;;;;4948912;28;20034;-69
2023/06/06 07:56:15;;;;;;;5.97;3.80;;;18.90;69.30;;;;;;4953142;28;20768;-70
2023/06/06 07:58:41;;;;;;;5.03;3.23;;;19.00;69.50;;;;;;4971411;28;20030;-69
2023/06/06 08:01:11;;;;;;;5.30;3.30;;;19.20;69.90;;;;;;4949658;28;20181;-70
2023/06/06 08:03:37;;;;;;;5.65;3.60;;;19.40;70.50;;;;;;4972428;28;20034;-70
2023/06/06 08:06:03;;;;;;;5.25;2.95;;;19.80;71.40;;;;;;4973791;28;20037;-70
2023/06/06 08:08:28;;;;;;;5.20;3.30;;;20.10;71.60;;;;;;4979730;28;20493;-70
2023/06/06 08:10:54;;;;;;;5.33;3.23;;;20.50;71.40;;;;;;4949786;28;20084;-69
2023/06/06 08:13:20;;;;;;;6.43;4.00;;;21.00;71.60;;;;;;4962356;28;20109;-71
2023/06/06 08:15:46;;;;;;;5.77;3.60;;;21.40;71.20;;;;;;4967319;28;20042;-69
2023/06/06 08:18:15;;;;;;;6.20;3.40;;;21.80;71.30;;;;;;4966986;28;20133;-70
2023/06/06 08:20:41;;;;;;;4.72;3.20;;;22.20;70.80;;;;;;4982118;28;20112;-70
2023/06/06 08:23:07;;;;;;;5.10;3.05;;;22.80;71.30;;;;;;4972342;28;20535;-71
2023/06/06 08:25:41;;;;;;;4.87;2.83;;;23.30;71.10;;;;;;4951805;28;20536;-70
2023/06/06 08:28:07;;;;;;;4.30;3.00;;;23.80;70.00;;;;;;4968123;28;20168;-70
2023/06/06 08:30:33;;;;;;;4.83;3.00;;;24.20;70.10;;;;;;4967774;28;20058;-70
2023/06/06 08:32:58;;;;;;;3.75;2.95;;;24.70;69.60;;;;;;4951947;28;20268;-70
2023/06/06 08:35:24;;;;;;;4.60;2.87;;;25.20;68.90;;;;;;4963144;28;20061;-70
2023/06/06 08:37:52;;;;;;;4.97;3.40;;;25.60;68.00;;;;;;4978325;28;20285;-69
2023/06/06 08:40:18;;;;;;;5.15;3.47;;;25.90;66.60;;;;;;4933185;28;20057;-70
2023/06/06 08:42:48;;;;;;;5.20;3.50;;;26.30;65.40;;;;;;4979971;28;20433;-69
2023/06/06 08:45:16;;;;;;;5.30;3.40;;;26.50;64.00;;;;;;4954475;28;20035;-71
2023/06/06 08:47:44;;;;;;;5.70;3.63;;;26.70;63.50;;;;;;4965663;28;20430;-70
2023/06/06 08:50:09;;;;;;;4.22;3.10;;;27.00;62.90;;;;;;4967122;28;20164;-70
2023/06/06 08:52:37;;;;;;;5.77;3.07;;;27.20;62.80;;;;;;4979439;28;20256;-70
2023/06/06 08:55:07;;;;;;;4.40;3.33;;;27.40;62.30;;;;;;4975046;28;20065;-69
2023/06/06 08:57:34;;;;;;;4.88;3.00;;;27.70;61.80;;;;;;4966330;28;20057;-70
2023/06/06 09:00:11;;;;;;;4.15;2.95;;;27.90;61.70;;;;;;4963827;28;20034;-71
2023/06/06 09:02:41;;;;;;;6.10;3.08;;;28.10;60.80;;;;;;4959891;28;20108;-70
2023/06/06 09:05:13;;;;;;;5.07;3.47;;;28.20;59.70;;;;;;4956880;28;20026;-69
2023/06/06 09:07:40;;;;;;;5.88;3.80;;;28.40;58.40;;;;;;4980930;28;20471;-71
2023/06/06 09:10:06;;;;;;;5.30;3.50;;;28.50;58.20;;;;;;4968464;28;20021;-69
2023/06/06 09:12:46;;;;;;;4.68;3.42;;;28.60;57.30;;;;;;4957570;28;20215;-70
2023/06/06 09:15:13;;;;;;;4.97;3.67;;;28.60;55.70;;;;;;4962024;28;20036;-70
2023/06/06 09:17:46;;;;;;;4.10;3.40;;;28.60;56.60;;;;;;4971694;28;20652;-70
2023/06/06 09:20:14;;;;;;;4.57;3.15;;;28.70;56.70;;;;;;4976576;28;20097;-70
2023/06/06 09:22:45;;;;;;;5.13;3.33;;;28.80;56.80;;;;;;4978777;28;20044;-69
2023/06/06 09:25:23;;;;;;;4.45;3.13;;;28.90;57.00;;;;;;4984652;28;20035;-71
2023/06/06 09:28:00;;;;;;;4.60;3.15;;;29.10;56.30;;;;;;4953488;28;20320;-70
2023/06/06 09:30:28;;;;;;;3.97;2.90;;;29.30;55.20;;;;;;4975875;28;20077;-70
2023/06/06 09:33:14;;;;;;;4.93;3.35;;;29.50;56.00;;;;;;4962318;28;20042;-71
2023/06/06 09:35:43;;;;;;;3.88;3.10;;;29.70;55.40;;;;;;4946957;28;20022;-70
2023/06/06 09:38:19;;;;;;;5.28;3.17;;;29.90;54.70;;;;;;4983038;28;20030;-71
2023/06/06 09:40:50;;;;;;;5.05;3.15;;;30.00;53.80;;;;;;4959903;28;20496;-71
2023/06/06 09:43:22;;;;;;;5.47;3.30;;;30.10;53.90;;;;;;4943550;28;20034;-71
2023/06/06 09:45:50;;;;;;;4.05;3.28;;;30.20;53.00;;;;;;4963120;28;20042;-71
2023/06/06 09:48:23;;;;;;;5.45;3.13;;;30.20;53.60;;;;;;4969147;28;20146;-70
2023/06/06 09:50:50;;;;;;;3.50;2.65;;;30.40;52.60;;;;;;4949617;28;20444;-71
2023/06/06 09:53:16;;;;;;;6.85;3.45;;;30.60;53.60;;;;;;4977581;28;20544;-70
2023/06/06 09:55:43;;;;;;;5.67;3.17;;;30.70;52.80;;;;;;4975628;28;20025;-70
2023/06/06 09:58:19;;;;;;;4.35;2.90;;;30.90;52.60;;;;;;4948915;28;20046;-70
2023/06/06 10:00:45;;;;;;;4.63;3.03;;;31.00;51.60;;;;;;4974897;28;20022;-70
2023/06/06 10:03:18;;;;;;;5.00;3.13;;;31.30;52.70;;;;;;4959020;28;20034;-71
2023/06/06 10:05:46;;;;;;;4.27;2.77;;;31.50;52.00;;;;;;4951978;28;20390;-70
2023/06/06 10:08:14;;;;;;;4.18;2.90;;;31.70;51.90;;;;;;4975702;28;20030;-70
2023/06/06 10:10:43;;;;;;;5.68;3.13;;;31.90;51.70;;;;;;4971421;28;20026;-69
2023/06/06 10:13:12;;;;;;;4.20;3.10;;;32.20;50.50;;;;;;4976270;28;20441;-70
2023/06/06 10:15:39;;;;;;;3.88;3.10;;;32.40;50.30;;;;;;4942782;28;20126;-70
2023/06/06 10:18:05;;;;;;;4.17;2.73;;;32.50;49.90;;;;;;4960859;28;20101;-70
2023/06/06 10:20:32;;;;;;;5.35;2.97;;;32.70;50.50;;;;;;4962532;28;20031;-70
2023/06/06 10:23:01;;;;;;;3.47;2.70;;;32.70;48.50;;;;;;4972129;28;20751;-71
2023/06/06 10:25:27;;;;;;;4.75;3.05;;;32.70;48.40;;;;;;4973777;28;20090;-70
2023/06/06 10:28:26;;;;;;;4.43;2.97;;;32.70;48.00;;;;;;4963229;28;20068;-70
2023/06/06 10:31:03;;;;;;;4.07;2.87;;;32.70;47.20;;;;;;4949218;28;20227;-71
2023/06/06 10:33:42;;;;;;;4.75;3.50;;;32.80;47.80;;;;;;4960647;28;20034;-70
2023/06/06 10:36:13;;;;;;;5.15;3.20;;;32.70;47.00;;;;;;4968666;28;20049;-71
2023/06/06 10:38:39;;;;;;;4.40;3.03;;;32.70;47.20;;;;;;4958367;28;20038;-69
2023/06/06 10:41:16;;;;;;;4.25;2.80;;;32.80;47.40;;;;;;4980211;28;20026;-70
2023/06/06 10:43:41;;;;;;;4.93;2.90;;;32.90;47.20;;;;;;4974179;28;20152;-70
2023/06/06 10:46:08;;;;;;;4.05;2.90;;;33.00;47.30;;;;;;4947532;28;20026;-70
2023/06/06 10:48:54;;;;;;;8.20;3.10;;;33.10;47.20;;;;;;4960448;28;20034;-69
2023/06/06 10:51:35;;;;;;;4.07;3.15;;;33.30;46.40;;;;;;4978768;28;20042;-71
2023/06/06 10:54:13;;;;;;;4.10;3.10;;;33.30;45.40;;;;;;4958546;28;20188;-70
2023/06/06 10:56:52;;;;;;;4.25;3.33;;;33.50;45.70;;;;;;4961646;28;20390;-71
2023/06/06 10:59:30;;;;;;;4.63;2.97;;;33.60;45.70;;;;;;4981475;28;20505;-70
2023/06/06 11:01:56;;;;;;;4.43;3.00;;;33.80;45.90;;;;;;4946254;28;20413;-71
2023/06/06 11:04:27;;;;;;;3.72;2.47;;;33.90;45.20;;;;;;4960363;28;20034;-70
2023/06/06 11:07:00;;;;;;;5.67;3.00;;;33.90;44.70;;;;;;4978902;28;20530;-71
2023/06/06 11:09:32;;;;;;;4.35;3.03;;;33.80;43.90;;;;;;4955653;28;20069;-70
2023/06/06 11:12:16;;;;;;;3.88;2.85;;;33.80;44.30;;;;;;4976121;28;20037;-71
2023/06/06 11:15:04;;;;;;;3.92;2.83;;;33.90;44.40;;;;;;4975420;28;20752;-70
2023/06/06 11:17:55;;;;;;;3.50;2.88;;;34.00;44.30;;;;;;4943743;28;20062;-71
2023/06/06 11:20:24;;;;;;;4.30;2.63;;;34.10;43.30;;;;;;4937310;28;20089;-69
2023/06/06 11:22:53;;;;;;;8.75;3.33;;;34.30;44.60;;;;;;4977659;28;20026;-71
2023/06/06 11:25:23;;;;;;;5.32;3.05;;;34.30;43.80;;;;;;4955294;28;20409;-70
2023/06/06 11:27:49;;;;;;;4.30;3.17;;;34.40;43.40;;;;;;4977886;28;20420;-70
2023/06/06 11:30:16;;;;;;;4.35;3.38;;;34.50;44.00;;;;;;4978699;28;20025;-69
2023/06/06 11:32:47;;;;;;;3.80;3.00;;;34.70;43.70;;;;;;4953077;28;20216;-71
2023/06/06 11:35:21;;;;;;;3.75;3.30;;;34.80;42.80;;;;;;4964988;28;20397;-70
2023/06/06 11:37:46;;;;;;;4.82;3.10;;;34.80;42.60;;;;;;4974944;28;20034;-70
2023/06/06 11:40:13;;;;;;;3.22;2.92;;;34.80;43.40;;;;;;4956380;28;20034;-70
2023/06/06 11:42:45;;;;;;;4.83;3.30;;;35.00;42.80;;;;;;4993951;28;20238;-71
2023/06/06 11:45:15;;;;;;;3.00;2.63;;;35.10;41.90;;;;;;4976112;28;20054;-70
2023/06/06 11:47:41;;;;;;;4.82;2.83;;;35.10;41.90;;;;;;4939897;28;20347;-70
2023/06/06 11:50:08;;;;;;;4.57;3.05;;;35.20;42.60;;;;;;4968980;28;20114;-70
2023/06/06 11:52:48;;;;;;;3.55;3.13;;;35.30;42.40;;;;;;4961493;28;20112;-71
2023/06/06 11:55:15;;;;;;;3.83;2.67;;;35.40;41.00;;;;;;4963848;28;20682;-70
2023/06/06 11:57:41;;;;;;;3.50;2.72;;;35.50;41.60;;;;;;4962914;28;20225;-71
2023/06/06 12:00:10;;;;;;;4.20;3.22;;;35.60;41.00;;;;;;4974825;28;20034;-70
2023/06/06 12:02:37;;;;;;;3.97;2.70;;;35.50;40.70;;;;;;4949595;28;20121;-71
2023/06/06 12:05:04;;;;;;;3.97;2.78;;;35.60;40.80;;;;;;4944239;28;20425;-71
2023/06/06 12:07:31;;;;;;;4.37;2.67;;;35.70;41.10;;;;;;4953271;28;20075;-71
2023/06/06 12:10:00;;;;;;;3.90;3.15;;;35.80;40.70;;;;;;4973845;28;20040;-71
2023/06/06 12:12:26;;;;;;;4.80;3.65;;;35.90;39.70;;;;;;4955434;28;20022;-71
2023/06/06 12:14:56;;;;;;;4.55;3.10;;;35.90;39.40;;;;;;4969916;28;20644;-71
2023/06/06 12:17:25;;;;;;;3.13;2.80;;;35.90;39.50;;;;;;4966441;28;20494;-71
2023/06/06 12:19:54;;;;;;;3.03;2.60;;;35.80;39.80;;;;;;4936987;28;20546;-71
2023/06/06 12:22:33;;;;;;;3.33;2.60;;;35.80;39.10;;;;;;4967851;28;20222;-71
2023/06/06 12:25:00;;;;;;;4.20;2.97;;;35.90;39.00;;;;;;4981237;28;20331;-71
2023/06/06 12:27:27;;;;;;;4.28;2.90;;;35.80;38.60;;;;;;4961961;28;20489;-71
2023/06/06 12:29:57;;;;;;;3.75;2.80;;;35.90;38.80;;;;;;4973378;28;20672;-71
2023/06/06 12:32:29;;;;;;;3.60;2.77;;;35.80;38.20;;;;;;4967607;28;20031;-71
2023/06/06 12:35:01;;;;;;;3.53;2.60;;;35.60;37.50;;;;;;4940221;28;20237;-71
2023/06/06 12:37:37;;;;;;;3.50;2.42;;;35.50;37.70;;;;;;4981147;28;20053;-71
2023/06/06 12:40:12;;;;;;;3.45;2.90;;;35.40;37.90;;;;;;4972161;28;20403;-71
2023/06/06 12:42:38;;;;;;;3.60;2.58;;;35.30;37.90;;;;;;4972713;28;20038;-70
2023/06/06 12:45:05;;;;;;;3.40;2.70;;;35.20;38.10;;;;;;4972328;28;20259;-70
2023/06/06 12:47:32;;;;;;;3.38;2.53;;;35.20;37.80;;;;;;4977417;28;20851;-70
2023/06/06 12:49:58;;;;;;;3.20;2.50;;;35.20;38.30;;;;;;4936587;28;20038;-70
2023/06/06 12:52:25;;;;;;;2.80;2.40;;;35.10;37.90;;;;;;4973615;28;20221;-71
2023/06/06 12:54:51;;;;;;;3.77;2.50;;;35.20;37.90;;;;;;4962256;28;20034;-70
2023/06/06 12:57:16;;;;;;;3.45;2.60;;;35.20;37.40;;;;;;4959031;28;20274;-71